sensor_id;sensor_type;location;lat;lon;timestamp;P1;durP1;ratioP1;P2;durP2;ratioP2
9643;SDS011;4860;50.900;4.720;2024-03-08T00:01:33;0.40;;;0.40;;
9643;SDS011;4860;50.900;4.720;2024-03-08T00:03:59;0.50;;;0.50;;
9643;SDS011;4860;50.900;4.720;2024-03-08T00:06:26;0.47;;;0.47;;
9643;SDS011;4860;50.900;4.720;2024-03-08T00:08:53;0.50;;;0.50;;
9643;SDS011;4860;50.900;4.720;2024-03-08T00:11:21;0.40;;;0.40;;
9643;SDS011;4860;50.900;4.720;2024-03-08T00:13:51;0.50;;;0.50;;
9643;SDS011;4860;50.900;4.720;2024-03-08T00:16:21;0.50;;;0.50;;
9643;SDS011;4860;50.900;4.720;2024-03-08T00:18:49;0.50;;;0.50;;
9643;SDS011;4860;50.900;4.720;2024-03-08T00:21:16;0.40;;;0.40;;
9643;SDS011;4860;50.900;4.720;2024-03-08T00:23:44;0.40;;;0.40;;
9643;SDS011;4860;50.900;4.720;2024-03-08T00:26:11;0.30;;;0.30;;
9643;SDS011;4860;50.900;4.720;2024-03-08T00:28:37;0.50;;;0.50;;
9643;SDS011;4860;50.900;4.720;2024-03-08T00:31:03;0.40;;;0.40;;
9643;SDS011;4860;50.900;4.720;2024-03-08T00:33:29;0.40;;;0.40;;
9643;SDS011;4860;50.900;4.720;2024-03-08T00:35:56;0.40;;;0.40;;
9643;SDS011;4860;50.900;4.720;2024-03-08T00:38:22;0.50;;;0.50;;
9643;SDS011;4860;50.900;4.720;2024-03-08T00:40:48;0.50;;;0.50;;
9643;SDS011;4860;50.900;4.720;2024-03-08T00:43:15;0.43;;;0.43;;
9643;SDS011;4860;50.900;4.720;2024-03-08T00:45:41;0.50;;;0.50;;
9643;SDS011;4860;50.900;4.720;2024-03-08T00:48:08;0.40;;;0.40;;
9643;SDS011;4860;50.900;4.720;2024-03-08T00:50:36;0.47;;;0.47;;
9643;SDS011;4860;50.900;4.720;2024-03-08T00:53:02;0.50;;;0.50;;
9643;SDS011;4860;50.900;4.720;2024-03-08T00:55:30;0.40;;;0.40;;
9643;SDS011;4860;50.900;4.720;2024-03-08T00:57:56;0.40;;;0.40;;
9643;SDS011;4860;50.900;4.720;2024-03-08T01:00:23;0.50;;;0.50;;
9643;SDS011;4860;50.900;4.720;2024-03-08T01:02:54;0.40;;;0.40;;
9643;SDS011;4860;50.900;4.720;2024-03-08T01:05:21;0.50;;;0.50;;
9643;SDS011;4860;50.900;4.720;2024-03-08T01:07:50;0.43;;;0.43;;
9643;SDS011;4860;50.900;4.720;2024-03-08T01:10:17;0.50;;;0.50;;
9643;SDS011;4860;50.900;4.720;2024-03-08T01:12:44;0.50;;;0.50;;
9643;SDS011;4860;50.900;4.720;2024-03-08T01:15:11;0.43;;;0.43;;
9643;SDS011;4860;50.900;4.720;2024-03-08T01:17:38;0.50;;;0.50;;
9643;SDS011;4860;50.900;4.720;2024-03-08T01:20:06;0.50;;;0.50;;
9643;SDS011;4860;50.900;4.720;2024-03-08T01:22:34;0.40;;;0.40;;
9643;SDS011;4860;50.900;4.720;2024-03-08T01:25:00;0.50;;;0.50;;
9643;SDS011;4860;50.900;4.720;2024-03-08T01:27:26;0.50;;;0.50;;
9643;SDS011;4860;50.900;4.720;2024-03-08T01:29:53;0.40;;;0.40;;
9643;SDS011;4860;50.900;4.720;2024-03-08T01:32:20;0.50;;;0.50;;
9643;SDS011;4860;50.900;4.720;2024-03-08T01:34:48;0.50;;;0.50;;
9643;SDS011;4860;50.900;4.720;2024-03-08T01:37:14;0.40;;;0.40;;
9643;SDS011;4860;50.900;4.720;2024-03-08T01:39:40;0.50;;;0.50;;
9643;SDS011;4860;50.900;4.720;2024-03-08T01:42:07;0.50;;;0.50;;
9643;SDS011;4860;50.900;4.720;2024-03-08T01:44:33;0.50;;;0.50;;
9643;SDS011;4860;50.900;4.720;2024-03-08T01:47:01;0.40;;;0.40;;
9643;SDS011;4860;50.900;4.720;2024-03-08T01:49:28;0.50;;;0.50;;
9643;SDS011;4860;50.900;4.720;2024-03-08T01:51:54;0.50;;;0.50;;
9643;SDS011;4860;50.900;4.720;2024-03-08T01:54:24;0.40;;;0.40;;
9643;SDS011;4860;50.900;4.720;2024-03-08T01:56:52;0.50;;;0.50;;
9643;SDS011;4860;50.900;4.720;2024-03-08T01:59:19;0.47;;;0.47;;
9643;SDS011;4860;50.900;4.720;2024-03-08T02:01:46;0.50;;;0.50;;
9643;SDS011;4860;50.900;4.720;2024-03-08T02:04:13;0.50;;;0.50;;
9643;SDS011;4860;50.900;4.720;2024-03-08T02:06:39;0.53;;;0.53;;
9643;SDS011;4860;50.900;4.720;2024-03-08T02:09:06;0.50;;;0.50;;
9643;SDS011;4860;50.900;4.720;2024-03-08T02:11:34;0.47;;;0.47;;
9643;SDS011;4860;50.900;4.720;2024-03-08T02:14:01;0.60;;;0.60;;
9643;SDS011;4860;50.900;4.720;2024-03-08T02:16:29;0.40;;;0.40;;
9643;SDS011;4860;50.900;4.720;2024-03-08T02:18:56;0.50;;;0.50;;
9643;SDS011;4860;50.900;4.720;2024-03-08T02:21:22;0.60;;;0.60;;
9643;SDS011;4860;50.900;4.720;2024-03-08T02:23:49;0.40;;;0.40;;
9643;SDS011;4860;50.900;4.720;2024-03-08T02:26:17;0.50;;;0.50;;
9643;SDS011;4860;50.900;4.720;2024-03-08T02:28:44;0.50;;;0.50;;
9643;SDS011;4860;50.900;4.720;2024-03-08T02:31:11;0.40;;;0.40;;
9643;SDS011;4860;50.900;4.720;2024-03-08T02:33:37;0.40;;;0.40;;
9643;SDS011;4860;50.900;4.720;2024-03-08T02:36:04;0.40;;;0.40;;
9643;SDS011;4860;50.900;4.720;2024-03-08T02:38:31;0.60;;;0.60;;
9643;SDS011;4860;50.900;4.720;2024-03-08T02:40:58;0.60;;;0.60;;
9643;SDS011;4860;50.900;4.720;2024-03-08T02:43:24;0.50;;;0.50;;
9643;SDS011;4860;50.900;4.720;2024-03-08T02:45:51;0.40;;;0.40;;
9643;SDS011;4860;50.900;4.720;2024-03-08T02:48:21;0.50;;;0.50;;
9643;SDS011;4860;50.900;4.720;2024-03-08T02:50:52;0.50;;;0.50;;
9643;SDS011;4860;50.900;4.720;2024-03-08T02:53:19;0.60;;;0.60;;
9643;SDS011;4860;50.900;4.720;2024-03-08T02:55:45;0.40;;;0.40;;
9643;SDS011;4860;50.900;4.720;2024-03-08T02:58:12;0.50;;;0.50;;
9643;SDS011;4860;50.900;4.720;2024-03-08T03:00:40;0.50;;;0.50;;
9643;SDS011;4860;50.900;4.720;2024-03-08T03:03:07;0.50;;;0.50;;
9643;SDS011;4860;50.900;4.720;2024-03-08T03:05:34;0.50;;;0.50;;
9643;SDS011;4860;50.900;4.720;2024-03-08T03:08:01;0.60;;;0.60;;
9643;SDS011;4860;50.900;4.720;2024-03-08T03:10:34;0.50;;;0.50;;
9643;SDS011;4860;50.900;4.720;2024-03-08T03:13:01;0.60;;;0.60;;
9643;SDS011;4860;50.900;4.720;2024-03-08T03:15:29;0.50;;;0.50;;
9643;SDS011;4860;50.900;4.720;2024-03-08T03:17:56;0.57;;;0.57;;
9643;SDS011;4860;50.900;4.720;2024-03-08T03:20:22;0.50;;;0.50;;
9643;SDS011;4860;50.900;4.720;2024-03-08T03:22:51;0.60;;;0.60;;
9643;SDS011;4860;50.900;4.720;2024-03-08T03:25:18;0.50;;;0.50;;
9643;SDS011;4860;50.900;4.720;2024-03-08T03:27:54;0.60;;;0.60;;
9643;SDS011;4860;50.900;4.720;2024-03-08T03:30:23;0.50;;;0.50;;
9643;SDS011;4860;50.900;4.720;2024-03-08T03:32:52;0.60;;;0.60;;
9643;SDS011;4860;50.900;4.720;2024-03-08T03:35:20;0.60;;;0.60;;
9643;SDS011;4860;50.900;4.720;2024-03-08T03:37:46;0.50;;;0.50;;
9643;SDS011;4860;50.900;4.720;2024-03-08T03:40:48;0.60;;;0.60;;
9643;SDS011;4860;50.900;4.720;2024-03-08T03:43:17;0.60;;;0.60;;
9643;SDS011;4860;50.900;4.720;2024-03-08T03:45:44;0.50;;;0.50;;
9643;SDS011;4860;50.900;4.720;2024-03-08T03:48:11;0.50;;;0.50;;
9643;SDS011;4860;50.900;4.720;2024-03-08T03:50:37;0.57;;;0.57;;
9643;SDS011;4860;50.900;4.720;2024-03-08T03:53:04;0.57;;;0.57;;
9643;SDS011;4860;50.900;4.720;2024-03-08T03:55:33;0.50;;;0.50;;
9643;SDS011;4860;50.900;4.720;2024-03-08T03:58:00;0.50;;;0.50;;
9643;SDS011;4860;50.900;4.720;2024-03-08T04:00:27;0.50;;;0.50;;
9643;SDS011;4860;50.900;4.720;2024-03-08T04:02:53;0.50;;;0.50;;
9643;SDS011;4860;50.900;4.720;2024-03-08T04:05:24;0.50;;;0.50;;
9643;SDS011;4860;50.900;4.720;2024-03-08T04:07:52;0.50;;;0.50;;
9643;SDS011;4860;50.900;4.720;2024-03-08T04:10:19;0.50;;;0.50;;
9643;SDS011;4860;50.900;4.720;2024-03-08T04:12:45;0.60;;;0.60;;
9643;SDS011;4860;50.900;4.720;2024-03-08T04:15:12;0.50;;;0.50;;
9643;SDS011;4860;50.900;4.720;2024-03-08T04:17:38;0.43;;;0.43;;
9643;SDS011;4860;50.900;4.720;2024-03-08T04:20:05;0.50;;;0.50;;
9643;SDS011;4860;50.900;4.720;2024-03-08T04:22:39;0.60;;;0.60;;
9643;SDS011;4860;50.900;4.720;2024-03-08T04:25:06;0.60;;;0.60;;
9643;SDS011;4860;50.900;4.720;2024-03-08T04:27:33;0.50;;;0.50;;
9643;SDS011;4860;50.900;4.720;2024-03-08T04:29:59;0.60;;;0.60;;
9643;SDS011;4860;50.900;4.720;2024-03-08T04:32:25;0.50;;;0.50;;
9643;SDS011;4860;50.900;4.720;2024-03-08T04:34:55;0.50;;;0.50;;
9643;SDS011;4860;50.900;4.720;2024-03-08T04:37:22;0.50;;;0.50;;
9643;SDS011;4860;50.900;4.720;2024-03-08T04:39:49;0.50;;;0.50;;
9643;SDS011;4860;50.900;4.720;2024-03-08T04:42:15;0.60;;;0.60;;
9643;SDS011;4860;50.900;4.720;2024-03-08T04:44:44;0.50;;;0.50;;
9643;SDS011;4860;50.900;4.720;2024-03-08T04:47:10;0.60;;;0.60;;
9643;SDS011;4860;50.900;4.720;2024-03-08T04:49:37;0.50;;;0.50;;
9643;SDS011;4860;50.900;4.720;2024-03-08T04:52:04;0.50;;;0.50;;
9643;SDS011;4860;50.900;4.720;2024-03-08T04:54:32;0.60;;;0.60;;
9643;SDS011;4860;50.900;4.720;2024-03-08T04:56:59;0.50;;;0.50;;
9643;SDS011;4860;50.900;4.720;2024-03-08T04:59:27;0.60;;;0.60;;
9643;SDS011;4860;50.900;4.720;2024-03-08T05:01:54;0.60;;;0.60;;
9643;SDS011;4860;50.900;4.720;2024-03-08T05:04:21;0.50;;;0.50;;
9643;SDS011;4860;50.900;4.720;2024-03-08T05:06:48;0.60;;;0.60;;
9643;SDS011;4860;50.900;4.720;2024-03-08T05:09:14;0.60;;;0.60;;
9643;SDS011;4860;50.900;4.720;2024-03-08T05:11:41;0.50;;;0.50;;
9643;SDS011;4860;50.900;4.720;2024-03-08T05:14:09;0.60;;;0.60;;
9643;SDS011;4860;50.900;4.720;2024-03-08T05:16:35;0.50;;;0.50;;
9643;SDS011;4860;50.900;4.720;2024-03-08T05:19:02;0.60;;;0.60;;
9643;SDS011;4860;50.900;4.720;2024-03-08T05:21:28;0.50;;;0.50;;
9643;SDS011;4860;50.900;4.720;2024-03-08T05:23:54;0.50;;;0.50;;
9643;SDS011;4860;50.900;4.720;2024-03-08T05:26:20;0.57;;;0.57;;
9643;SDS011;4860;50.900;4.720;2024-03-08T05:28:47;0.50;;;0.50;;
9643;SDS011;4860;50.900;4.720;2024-03-08T05:31:20;0.60;;;0.60;;
9643;SDS011;4860;50.900;4.720;2024-03-08T05:33:50;0.50;;;0.50;;
9643;SDS011;4860;50.900;4.720;2024-03-08T05:36:16;0.60;;;0.60;;
9643;SDS011;4860;50.900;4.720;2024-03-08T05:38:43;0.50;;;0.50;;
9643;SDS011;4860;50.900;4.720;2024-03-08T05:41:10;0.50;;;0.50;;
9643;SDS011;4860;50.900;4.720;2024-03-08T05:43:38;0.53;;;0.53;;
9643;SDS011;4860;50.900;4.720;2024-03-08T05:46:05;0.60;;;0.60;;
9643;SDS011;4860;50.900;4.720;2024-03-08T05:48:31;0.60;;;0.60;;
9643;SDS011;4860;50.900;4.720;2024-03-08T05:50:59;0.40;;;0.40;;
9643;SDS011;4860;50.900;4.720;2024-03-08T05:53:27;0.50;;;0.50;;
9643;SDS011;4860;50.900;4.720;2024-03-08T05:55:57;0.57;;;0.57;;
9643;SDS011;4860;50.900;4.720;2024-03-08T05:58:24;0.60;;;0.60;;
9643;SDS011;4860;50.900;4.720;2024-03-08T06:00:50;0.60;;;0.60;;
9643;SDS011;4860;50.900;4.720;2024-03-08T06:03:17;0.60;;;0.60;;
9643;SDS011;4860;50.900;4.720;2024-03-08T06:05:47;0.60;;;0.60;;
9643;SDS011;4860;50.900;4.720;2024-03-08T06:08:13;0.60;;;0.60;;
9643;SDS011;4860;50.900;4.720;2024-03-08T06:10:40;0.50;;;0.50;;
9643;SDS011;4860;50.900;4.720;2024-03-08T06:13:06;0.50;;;0.50;;
9643;SDS011;4860;50.900;4.720;2024-03-08T06:15:32;0.60;;;0.60;;
9643;SDS011;4860;50.900;4.720;2024-03-08T06:18:00;0.40;;;0.40;;
9643;SDS011;4860;50.900;4.720;2024-03-08T06:20:26;0.60;;;0.60;;
9643;SDS011;4860;50.900;4.720;2024-03-08T06:22:53;0.60;;;0.60;;
9643;SDS011;4860;50.900;4.720;2024-03-08T06:25:20;0.57;;;0.57;;
9643;SDS011;4860;50.900;4.720;2024-03-08T06:27:46;0.60;;;0.60;;
9643;SDS011;4860;50.900;4.720;2024-03-08T06:30:12;0.50;;;0.50;;
9643;SDS011;4860;50.900;4.720;2024-03-08T06:32:41;0.50;;;0.50;;
9643;SDS011;4860;50.900;4.720;2024-03-08T06:35:08;0.50;;;0.50;;
9643;SDS011;4860;50.900;4.720;2024-03-08T06:37:35;0.50;;;0.50;;
9643;SDS011;4860;50.900;4.720;2024-03-08T06:40:02;0.43;;;0.43;;
9643;SDS011;4860;50.900;4.720;2024-03-08T06:42:29;0.50;;;0.50;;
9643;SDS011;4860;50.900;4.720;2024-03-08T06:45:00;0.60;;;0.60;;
9643;SDS011;4860;50.900;4.720;2024-03-08T06:47:31;0.60;;;0.60;;
9643;SDS011;4860;50.900;4.720;2024-03-08T06:49:58;0.60;;;0.60;;
9643;SDS011;4860;50.900;4.720;2024-03-08T06:52:25;0.50;;;0.50;;
9643;SDS011;4860;50.900;4.720;2024-03-08T06:54:51;0.50;;;0.50;;
9643;SDS011;4860;50.900;4.720;2024-03-08T06:57:18;0.50;;;0.50;;
9643;SDS011;4860;50.900;4.720;2024-03-08T06:59:48;0.60;;;0.60;;
9643;SDS011;4860;50.900;4.720;2024-03-08T07:02:14;0.60;;;0.60;;
9643;SDS011;4860;50.900;4.720;2024-03-08T07:04:40;0.50;;;0.50;;
9643;SDS011;4860;50.900;4.720;2024-03-08T07:07:07;0.50;;;0.50;;
9643;SDS011;4860;50.900;4.720;2024-03-08T07:09:36;0.60;;;0.60;;
9643;SDS011;4860;50.900;4.720;2024-03-08T07:12:02;0.60;;;0.60;;
9643;SDS011;4860;50.900;4.720;2024-03-08T07:14:29;0.60;;;0.60;;
9643;SDS011;4860;50.900;4.720;2024-03-08T07:16:59;0.50;;;0.50;;
9643;SDS011;4860;50.900;4.720;2024-03-08T07:19:25;0.50;;;0.50;;
9643;SDS011;4860;50.900;4.720;2024-03-08T07:21:51;0.60;;;0.60;;
9643;SDS011;4860;50.900;4.720;2024-03-08T07:24:20;0.60;;;0.60;;
9643;SDS011;4860;50.900;4.720;2024-03-08T07:27:19;0.50;;;0.50;;
9643;SDS011;4860;50.900;4.720;2024-03-08T07:29:45;0.50;;;0.50;;
9643;SDS011;4860;50.900;4.720;2024-03-08T07:32:12;0.50;;;0.50;;
9643;SDS011;4860;50.900;4.720;2024-03-08T07:34:48;0.40;;;0.40;;
9643;SDS011;4860;50.900;4.720;2024-03-08T07:37:16;0.50;;;0.50;;
9643;SDS011;4860;50.900;4.720;2024-03-08T07:39:44;0.50;;;0.50;;
9643;SDS011;4860;50.900;4.720;2024-03-08T07:42:11;0.50;;;0.50;;
9643;SDS011;4860;50.900;4.720;2024-03-08T07:44:38;0.50;;;0.50;;
9643;SDS011;4860;50.900;4.720;2024-03-08T07:47:05;0.50;;;0.50;;
9643;SDS011;4860;50.900;4.720;2024-03-08T07:49:35;0.40;;;0.40;;
9643;SDS011;4860;50.900;4.720;2024-03-08T07:52:04;0.50;;;0.50;;
9643;SDS011;4860;50.900;4.720;2024-03-08T07:54:33;0.50;;;0.50;;
9643;SDS011;4860;50.900;4.720;2024-03-08T07:57:00;0.57;;;0.57;;
9643;SDS011;4860;50.900;4.720;2024-03-08T07:59:28;0.50;;;0.50;;
9643;SDS011;4860;50.900;4.720;2024-03-08T08:01:55;0.40;;;0.40;;
9643;SDS011;4860;50.900;4.720;2024-03-08T08:04:22;0.40;;;0.40;;
9643;SDS011;4860;50.900;4.720;2024-03-08T08:06:50;0.40;;;0.40;;
9643;SDS011;4860;50.900;4.720;2024-03-08T08:09:16;0.50;;;0.50;;
9643;SDS011;4860;50.900;4.720;2024-03-08T08:11:54;0.40;;;0.40;;
9643;SDS011;4860;50.900;4.720;2024-03-08T08:14:20;0.40;;;0.40;;
9643;SDS011;4860;50.900;4.720;2024-03-08T08:16:47;0.40;;;0.40;;
9643;SDS011;4860;50.900;4.720;2024-03-08T08:19:15;0.40;;;0.40;;
9643;SDS011;4860;50.900;4.720;2024-03-08T08:21:41;0.40;;;0.40;;
9643;SDS011;4860;50.900;4.720;2024-03-08T08:24:08;0.40;;;0.40;;
9643;SDS011;4860;50.900;4.720;2024-03-08T08:26:36;0.40;;;0.40;;
9643;SDS011;4860;50.900;4.720;2024-03-08T08:29:02;0.50;;;0.50;;
9643;SDS011;4860;50.900;4.720;2024-03-08T08:31:31;0.40;;;0.40;;
9643;SDS011;4860;50.900;4.720;2024-03-08T08:33:58;0.40;;;0.40;;
9643;SDS011;4860;50.900;4.720;2024-03-08T08:36:25;0.43;;;0.43;;
9643;SDS011;4860;50.900;4.720;2024-03-08T08:38:54;0.33;;;0.33;;
9643;SDS011;4860;50.900;4.720;2024-03-08T08:41:22;0.40;;;0.40;;
9643;SDS011;4860;50.900;4.720;2024-03-08T08:43:49;0.40;;;0.40;;
9643;SDS011;4860;50.900;4.720;2024-03-08T08:46:19;0.40;;;0.40;;
9643;SDS011;4860;50.900;4.720;2024-03-08T08:48:46;0.40;;;0.40;;
9643;SDS011;4860;50.900;4.720;2024-03-08T08:51:13;0.37;;;0.37;;
9643;SDS011;4860;50.900;4.720;2024-03-08T08:53:41;0.40;;;0.40;;
9643;SDS011;4860;50.900;4.720;2024-03-08T08:56:12;0.40;;;0.40;;
9643;SDS011;4860;50.900;4.720;2024-03-08T08:58:42;0.40;;;0.40;;
9643;SDS011;4860;50.900;4.720;2024-03-08T09:01:08;0.40;;;0.40;;
9643;SDS011;4860;50.900;4.720;2024-03-08T09:03:38;0.43;;;0.43;;
9643;SDS011;4860;50.900;4.720;2024-03-08T09:06:07;0.40;;;0.40;;
9643;SDS011;4860;50.900;4.720;2024-03-08T09:08:36;0.50;;;0.50;;
9643;SDS011;4860;50.900;4.720;2024-03-08T09:11:03;0.40;;;0.40;;
9643;SDS011;4860;50.900;4.720;2024-03-08T09:13:30;0.40;;;0.40;;
9643;SDS011;4860;50.900;4.720;2024-03-08T09:15:57;0.40;;;0.40;;
9643;SDS011;4860;50.900;4.720;2024-03-08T09:18:23;0.30;;;0.30;;
9643;SDS011;4860;50.900;4.720;2024-03-08T09:20:50;0.40;;;0.40;;
9643;SDS011;4860;50.900;4.720;2024-03-08T09:23:21;0.40;;;0.40;;
9643;SDS011;4860;50.900;4.720;2024-03-08T09:25:48;0.40;;;0.40;;
9643;SDS011;4860;50.900;4.720;2024-03-08T09:28:15;0.50;;;0.50;;
9643;SDS011;4860;50.900;4.720;2024-03-08T09:30:42;0.40;;;0.40;;
9643;SDS011;4860;50.900;4.720;2024-03-08T09:33:09;0.40;;;0.40;;
9643;SDS011;4860;50.900;4.720;2024-03-08T09:35:36;0.40;;;0.40;;
9643;SDS011;4860;50.900;4.720;2024-03-08T09:38:03;0.30;;;0.30;;
9643;SDS011;4860;50.900;4.720;2024-03-08T09:40:30;0.30;;;0.30;;
9643;SDS011;4860;50.900;4.720;2024-03-08T09:42:57;0.40;;;0.40;;
9643;SDS011;4860;50.900;4.720;2024-03-08T09:45:24;0.30;;;0.30;;
9643;SDS011;4860;50.900;4.720;2024-03-08T09:47:50;0.40;;;0.40;;
9643;SDS011;4860;50.900;4.720;2024-03-08T09:50:18;0.40;;;0.40;;
9643;SDS011;4860;50.900;4.720;2024-03-08T09:52:48;0.30;;;0.30;;
9643;SDS011;4860;50.900;4.720;2024-03-08T09:55:15;0.40;;;0.40;;
9643;SDS011;4860;50.900;4.720;2024-03-08T09:57:47;0.30;;;0.30;;
9643;SDS011;4860;50.900;4.720;2024-03-08T10:00:32;0.38;;;0.38;;
9643;SDS011;4860;50.900;4.720;2024-03-08T10:03:02;0.30;;;0.30;;
9643;SDS011;4860;50.900;4.720;2024-03-08T10:05:30;0.30;;;0.30;;
9643;SDS011;4860;50.900;4.720;2024-03-08T10:07:58;0.30;;;0.30;;
9643;SDS011;4860;50.900;4.720;2024-03-08T10:10:24;0.40;;;0.40;;
9643;SDS011;4860;50.900;4.720;2024-03-08T10:12:51;0.30;;;0.30;;
9643;SDS011;4860;50.900;4.720;2024-03-08T10:15:18;0.30;;;0.30;;
9643;SDS011;4860;50.900;4.720;2024-03-08T10:17:45;0.30;;;0.30;;
9643;SDS011;4860;50.900;4.720;2024-03-08T10:20:18;0.30;;;0.30;;
9643;SDS011;4860;50.900;4.720;2024-03-08T10:22:45;0.30;;;0.30;;
9643;SDS011;4860;50.900;4.720;2024-03-08T10:25:12;0.30;;;0.30;;
9643;SDS011;4860;50.900;4.720;2024-03-08T10:27:38;0.40;;;0.40;;
9643;SDS011;4860;50.900;4.720;2024-03-08T10:30:15;0.30;;;0.30;;
9643;SDS011;4860;50.900;4.720;2024-03-08T10:32:47;0.30;;;0.30;;
9643;SDS011;4860;50.900;4.720;2024-03-08T10:35:14;0.30;;;0.30;;
9643;SDS011;4860;50.900;4.720;2024-03-08T10:37:46;0.30;;;0.30;;
9643;SDS011;4860;50.900;4.720;2024-03-08T10:40:15;0.38;;;0.38;;
9643;SDS011;4860;50.900;4.720;2024-03-08T10:47:40;0.30;;;0.30;;
9643;SDS011;4860;50.900;4.720;2024-03-08T10:50:11;0.30;;;0.30;;
9643;SDS011;4860;50.900;4.720;2024-03-08T10:52:43;0.30;;;0.30;;
9643;SDS011;4860;50.900;4.720;2024-03-08T10:55:09;0.30;;;0.30;;
9643;SDS011;4860;50.900;4.720;2024-03-08T10:57:38;0.30;;;0.30;;
9643;SDS011;4860;50.900;4.720;2024-03-08T11:00:06;0.30;;;0.30;;
9643;SDS011;4860;50.900;4.720;2024-03-08T11:02:35;0.30;;;0.30;;
9643;SDS011;4860;50.900;4.720;2024-03-08T11:05:03;0.22;;;0.22;;
9643;SDS011;4860;50.900;4.720;2024-03-08T11:07:34;0.30;;;0.30;;
9643;SDS011;4860;50.900;4.720;2024-03-08T11:10:03;0.30;;;0.30;;
9643;SDS011;4860;50.900;4.720;2024-03-08T11:12:35;0.20;;;0.20;;
9643;SDS011;4860;50.900;4.720;2024-03-08T11:15:03;0.30;;;0.30;;
9643;SDS011;4860;50.900;4.720;2024-03-08T11:20:11;0.20;;;0.20;;
9643;SDS011;4860;50.900;4.720;2024-03-08T11:22:48;0.30;;;0.30;;
9643;SDS011;4860;50.900;4.720;2024-03-08T11:33:27;0.20;;;0.20;;
9643;SDS011;4860;50.900;4.720;2024-03-08T11:38:45;0.20;;;0.20;;
9643;SDS011;4860;50.900;4.720;2024-03-08T11:41:16;0.30;;;0.30;;
9643;SDS011;4860;50.900;4.720;2024-03-08T11:43:48;0.30;;;0.30;;
9643;SDS011;4860;50.900;4.720;2024-03-08T11:46:15;0.20;;;0.20;;
9643;SDS011;4860;50.900;4.720;2024-03-08T11:48:42;0.20;;;0.20;;
9643;SDS011;4860;50.900;4.720;2024-03-08T11:51:09;0.30;;;0.30;;
9643;SDS011;4860;50.900;4.720;2024-03-08T11:53:37;0.28;;;0.28;;
9643;SDS011;4860;50.900;4.720;2024-03-08T11:56:10;0.20;;;0.20;;
9643;SDS011;4860;50.900;4.720;2024-03-08T11:58:38;0.15;;;0.15;;
9643;SDS011;4860;50.900;4.720;2024-03-08T12:01:05;0.30;;;0.30;;
9643;SDS011;4860;50.900;4.720;2024-03-08T12:03:32;0.20;;;0.20;;
9643;SDS011;4860;50.900;4.720;2024-03-08T12:05:59;0.25;;;0.25;;
9643;SDS011;4860;50.900;4.720;2024-03-08T12:08:27;0.20;;;0.20;;
9643;SDS011;4860;50.900;4.720;2024-03-08T12:10:54;0.20;;;0.20;;
9643;SDS011;4860;50.900;4.720;2024-03-08T12:13:28;0.30;;;0.30;;
9643;SDS011;4860;50.900;4.720;2024-03-08T12:15:56;0.20;;;0.20;;
9643;SDS011;4860;50.900;4.720;2024-03-08T12:18:25;0.20;;;0.20;;
9643;SDS011;4860;50.900;4.720;2024-03-08T12:20:51;0.20;;;0.20;;
9643;SDS011;4860;50.900;4.720;2024-03-08T12:23:18;0.20;;;0.20;;
9643;SDS011;4860;50.900;4.720;2024-03-08T12:25:44;0.20;;;0.20;;
9643;SDS011;4860;50.900;4.720;2024-03-08T12:28:13;0.20;;;0.20;;
9643;SDS011;4860;50.900;4.720;2024-03-08T12:30:46;0.13;;;0.13;;
9643;SDS011;4860;50.900;4.720;2024-03-08T12:33:13;0.20;;;0.20;;
9643;SDS011;4860;50.900;4.720;2024-03-08T12:35:40;0.20;;;0.20;;
9643;SDS011;4860;50.900;4.720;2024-03-08T12:38:07;0.20;;;0.20;;
9643;SDS011;4860;50.900;4.720;2024-03-08T12:40:34;0.20;;;0.20;;
9643;SDS011;4860;50.900;4.720;2024-03-08T12:43:05;0.10;;;0.10;;
9643;SDS011;4860;50.900;4.720;2024-03-08T12:45:32;0.10;;;0.10;;
9643;SDS011;4860;50.900;4.720;2024-03-08T12:47:58;0.20;;;0.20;;
9643;SDS011;4860;50.900;4.720;2024-03-08T12:50:25;0.20;;;0.20;;
9643;SDS011;4860;50.900;4.720;2024-03-08T12:52:51;0.20;;;0.20;;
9643;SDS011;4860;50.900;4.720;2024-03-08T12:55:21;0.20;;;0.20;;
9643;SDS011;4860;50.900;4.720;2024-03-08T12:57:47;0.20;;;0.20;;
9643;SDS011;4860;50.900;4.720;2024-03-08T13:00:14;0.10;;;0.10;;
9643;SDS011;4860;50.900;4.720;2024-03-08T13:02:48;0.20;;;0.20;;
9643;SDS011;4860;50.900;4.720;2024-03-08T13:05:17;0.20;;;0.20;;
9643;SDS011;4860;50.900;4.720;2024-03-08T13:07:45;0.20;;;0.20;;
9643;SDS011;4860;50.900;4.720;2024-03-08T13:10:15;0.20;;;0.20;;
9643;SDS011;4860;50.900;4.720;2024-03-08T13:12:42;0.20;;;0.20;;
9643;SDS011;4860;50.900;4.720;2024-03-08T13:15:09;0.10;;;0.10;;
9643;SDS011;4860;50.900;4.720;2024-03-08T13:17:41;0.20;;;0.20;;
9643;SDS011;4860;50.900;4.720;2024-03-08T13:20:10;0.10;;;0.10;;
9643;SDS011;4860;50.900;4.720;2024-03-08T13:22:41;0.20;;;0.20;;
9643;SDS011;4860;50.900;4.720;2024-03-08T13:25:08;0.17;;;0.17;;
9643;SDS011;4860;50.900;4.720;2024-03-08T13:27:41;0.10;;;0.10;;
9643;SDS011;4860;50.900;4.720;2024-03-08T13:30:08;0.20;;;0.20;;
9643;SDS011;4860;50.900;4.720;2024-03-08T13:32:43;0.20;;;0.20;;
9643;SDS011;4860;50.900;4.720;2024-03-08T13:35:13;0.20;;;0.20;;
9643;SDS011;4860;50.900;4.720;2024-03-08T13:37:42;0.20;;;0.20;;
9643;SDS011;4860;50.900;4.720;2024-03-08T13:40:09;0.10;;;0.10;;
9643;SDS011;4860;50.900;4.720;2024-03-08T13:42:42;0.20;;;0.20;;
9643;SDS011;4860;50.900;4.720;2024-03-08T13:45:08;0.17;;;0.17;;
9643;SDS011;4860;50.900;4.720;2024-03-08T13:47:38;0.20;;;0.20;;
9643;SDS011;4860;50.900;4.720;2024-03-08T13:50:09;0.20;;;0.20;;
9643;SDS011;4860;50.900;4.720;2024-03-08T13:52:38;0.10;;;0.10;;
9643;SDS011;4860;50.900;4.720;2024-03-08T13:55:06;0.10;;;0.10;;
9643;SDS011;4860;50.900;4.720;2024-03-08T13:57:33;0.20;;;0.20;;
9643;SDS011;4860;50.900;4.720;2024-03-08T13:59:59;0.10;;;0.10;;
9643;SDS011;4860;50.900;4.720;2024-03-08T14:02:26;0.10;;;0.10;;
9643;SDS011;4860;50.900;4.720;2024-03-08T14:04:54;0.20;;;0.20;;
9643;SDS011;4860;50.900;4.720;2024-03-08T14:07:21;0.10;;;0.10;;
9643;SDS011;4860;50.900;4.720;2024-03-08T14:09:51;0.20;;;0.20;;
9643;SDS011;4860;50.900;4.720;2024-03-08T14:12:18;0.10;;;0.10;;
9643;SDS011;4860;50.900;4.720;2024-03-08T14:14:44;0.10;;;0.10;;
9643;SDS011;4860;50.900;4.720;2024-03-08T14:17:11;0.10;;;0.10;;
9643;SDS011;4860;50.900;4.720;2024-03-08T14:19:42;0.10;;;0.10;;
9643;SDS011;4860;50.900;4.720;2024-03-08T14:22:09;0.20;;;0.20;;
9643;SDS011;4860;50.900;4.720;2024-03-08T14:24:42;0.20;;;0.20;;
9643;SDS011;4860;50.900;4.720;2024-03-08T14:27:10;0.17;;;0.17;;
9643;SDS011;4860;50.900;4.720;2024-03-08T14:29:37;0.10;;;0.10;;
9643;SDS011;4860;50.900;4.720;2024-03-08T14:32:04;0.20;;;0.20;;
9643;SDS011;4860;50.900;4.720;2024-03-08T14:34:32;0.10;;;0.10;;
9643;SDS011;4860;50.900;4.720;2024-03-08T14:36:59;0.13;;;0.13;;
9643;SDS011;4860;50.900;4.720;2024-03-08T14:39:26;0.17;;;0.17;;
9643;SDS011;4860;50.900;4.720;2024-03-08T14:41:54;0.20;;;0.20;;
9643;SDS011;4860;50.900;4.720;2024-03-08T14:44:23;0.20;;;0.20;;
9643;SDS011;4860;50.900;4.720;2024-03-08T14:46:57;0.10;;;0.10;;
9643;SDS011;4860;50.900;4.720;2024-03-08T14:49:24;0.13;;;0.13;;
9643;SDS011;4860;50.900;4.720;2024-03-08T14:51:55;0.20;;;0.20;;
9643;SDS011;4860;50.900;4.720;2024-03-08T14:54:23;0.10;;;0.10;;
9643;SDS011;4860;50.900;4.720;2024-03-08T14:56:51;0.20;;;0.20;;
9643;SDS011;4860;50.900;4.720;2024-03-08T14:59:17;0.10;;;0.10;;
9643;SDS011;4860;50.900;4.720;2024-03-08T15:01:45;0.20;;;0.20;;
9643;SDS011;4860;50.900;4.720;2024-03-08T15:04:12;0.10;;;0.10;;
9643;SDS011;4860;50.900;4.720;2024-03-08T15:06:38;0.20;;;0.20;;
9643;SDS011;4860;50.900;4.720;2024-03-08T15:09:04;0.10;;;0.10;;
9643;SDS011;4860;50.900;4.720;2024-03-08T15:11:45;0.10;;;0.10;;
9643;SDS011;4860;50.900;4.720;2024-03-08T15:14:14;0.10;;;0.10;;
9643;SDS011;4860;50.900;4.720;2024-03-08T15:16:45;0.20;;;0.20;;
9643;SDS011;4860;50.900;4.720;2024-03-08T15:19:14;0.20;;;0.20;;
9643;SDS011;4860;50.900;4.720;2024-03-08T15:21:41;0.20;;;0.20;;
9643;SDS011;4860;50.900;4.720;2024-03-08T15:24:10;0.20;;;0.20;;
9643;SDS011;4860;50.900;4.720;2024-03-08T15:26:43;0.13;;;0.13;;
9643;SDS011;4860;50.900;4.720;2024-03-08T15:29:09;0.20;;;0.20;;
9643;SDS011;4860;50.900;4.720;2024-03-08T15:31:38;0.10;;;0.10;;
9643;SDS011;4860;50.900;4.720;2024-03-08T15:34:05;0.10;;;0.10;;
9643;SDS011;4860;50.900;4.720;2024-03-08T15:36:32;0.10;;;0.10;;
9643;SDS011;4860;50.900;4.720;2024-03-08T15:38:59;0.10;;;0.10;;